默认 日期 大小 文件数 浏览量 最新下载 xml
día a día磁力链接相关资源由用户搜索指令自动获取,结果来源于网络,本站不存储任何资料,亦不承担任何责任,请于24小时内删除,搜索到10837个磁力,显示前4000条数据,用时68ms。
    ... -_1v2_-_First_Night._Disgraced_Madonna_-_[D-A](4997e74a)(unc).ogm": 310022608, ... _Futari_no_Kajitsu_-_2_-_Second_Night._The_Failed_Student_-_[D-A](3bb318ff)(unc).ogm": 314749960 ... ._Drowned_in_Love_and_Enjoyment..._-_[D-A](8e0ba38e)(unc).ogm": 314732516 ...
创建时间: 2019-12-06 19:36:46 大小:895.98 MB 文件数量:3 热度:5 最近下载:2025-05-06 13:02:02
    ... ́n.mp3": 6399488, "Alfredo Olivas - A Estas Horas.mp3": 8257280, "Alfredo ... ": 6640640, "Alfredo Olivas - El Día De Los Muertos.mp3": 6533888 ... .mp3": 6914048, "Alfredo-olivas-el-día-de-los-muertos-2019.jpg ...
创建时间: 2019-12-07 22:29:11 大小:81.84 MB 文件数量:16 热度:5 最近下载:2025-09-12 11:49:14
    {"Brooklyn Chase & Bill Bailey Taking The D To Get An A AA - BRAZZERS.mp4": 1028442980}
创建时间: 2019-12-08 01:49:09 大小:980.8 MB 文件数量:1 热度:21 最近下载:2025-03-17 12:57:02
    {"A 26.jpg": 16876, "TanieKontaShell.jpg": ... ) [DVDRip.XviD] [Lektor PL] [D.T.A 26].avi": 1577306112, "DEVIL-TORRENTS ...
创建时间: 2019-12-08 08:14:22 大小:1.48 GB 文件数量:5 热度:5 最近下载:2025-04-22 22:35:02
    ... [Live] - D-A-D.flac": 31639319, "01 - Reconstrucdead [Live] - D-A-D.flac": 37728491, ... "02 - Black Crickets [Live] - D-A-D.flac": 28660496 ... , "08 - Laugh 'n' A ½ [Live] - D-A-D.flac": 35191894 ...
创建时间: 2019-12-08 10:06:02 大小:300.02 MB 文件数量:10 热度:5 最近下载:2025-05-28 15:55:02
    ... , "metadata.opf": 3428, "A Kind of Grief - A. D. Scott.epub": 2981264}, "North ... .opf": 4244, "North Sea Requiem - A. D. Scott.epub": 4118735}, "Beneath the ... ": 3389, "Beneath the Abbey Wall - A. D. Scott.epub": 3077482}, "Free Paid ...
创建时间: 2019-12-08 16:24:13 大小:19.74 MB 文件数量:19 热度:4 最近下载:2023-12-27 21:50:06
    {"[email protected]": 0, "[email protected]": 0, "05-The First Martyr.rmvb": 318434500, "HDzone - 高清地帶.url": 282, "Tvboxnow - 公仔箱論壇.url": 61, "_____padding_file_0_if you see this file, please update to BitComet 0.85 or above____": 70460, " ...
创建时间: 2019-12-08 20:14:05 大小:304.25 MB 文件数量:8 热度:10 最近下载:2025-09-19 22:32:05
    ... , "07. Babylon A.D. - Desperate.mp3": 14414410, "09. Babylon A.D. - Bad Blood. ... A.D. - Glyde.mp3": 5446511, "09. Babylon A.D. - Superstar.mp3": 5670328, "02. Babylon A.D ... , "01. Babylon A.D. - American Blitzkrieg.mp3": 6347422, "04. Babylon A.D. - Sinking In ...
创建时间: 2019-12-08 23:36:23 大小:1.37 GB 文件数量:217 热度:4 最近下载:2023-12-28 00:15:05
    {"Avery D.A. New Encyclopedia of Knots, 2014.pdf": 38854610, "Avery D.A. New Encyclopedia of Knots, 2014.epub": 25904820}
创建时间: 2019-12-09 00:05:10 大小:61.76 MB 文件数量:2 热度:6 最近下载:2024-12-25 06:52:02
    {"08 - Tundra.mp3": 11007415, "01 - Addiction.mp3": 7275045, "09 - Alien Face.mp3": 8179929, "03 - Be Here Now.mp3": 9015849, "04 - Junkie Logic.mp3": 10840243, "05 - Bitch Magnet.mp3": 9992831, "06 - Enemy Action.mp3": 8798513, "10 - I Wanna Be Alone.mp3 ...
创建时间: 2019-12-09 01:57:09 大小:89.76 MB 文件数量:10 热度:4 最近下载:2023-12-28 01:13:03
    {"A 26.jpg": 12141, "TanieKontaShell.jpg": ... ) [DVDRip.XviD] [Lektor PL] [D.T.A 26].avi": 1471086592, "DEVIL-TORRENTS ...
创建时间: 2019-12-09 04:11:19 大小:1.39 GB 文件数量:6 热度:3 最近下载:2023-12-28 01:48:04
    {"kha.18.08.13.ember.snow.give.me.a.d[N1C].mp4": 1849378605}
创建时间: 2019-12-09 04:28:31 大小:1.72 GB 文件数量:1 热度:6 最近下载:2024-11-09 15:13:02
    {"alt-torrent.com.mp4": 4001994, "POR FAVOR!.....COMPARTAN!.txt": 125, "Día de muertos (2019) WEBDL 1080p LAT - FllorTV [x265].jpg": 113546, "Día de muertos (2019) WEBDL 1080p LAT - FllorTV [x265].mkv": 943501198}
创建时间: 2019-12-09 23:09:52 大小:903.72 MB 文件数量:4 热度:7 最近下载:2025-09-18 17:25:02
    {"A 26.jpg": 27607, "TanieKontaShell.jpg": ... ) [DVDRip.XviD] [Lektor PL] [D.T.A 26].avi": 733919232, "DEVIL-TORRENTS ...
创建时间: 2019-12-10 05:08:36 大小:715.39 MB 文件数量:5 热度:5 最近下载:2023-12-28 06:04:03
    {"Vivere Aiuta A Non Morire": {"cd.jpg": 299581, " ... .mp3": 6805504, "05-L'Amore A Modo Mio con J-Ax ... e Mistico.mp3": 9574400, "10-A Meno Di Te con Michelle ... Volonte'.mp3": 9373696, "16-Continua a Correre con Andrea Nardinocchi.mp3 ...
创建时间: 2019-12-10 21:46:11 大小:139.69 MB 文件数量:26 热度:5 最近下载:2025-01-14 13:51:02
    {"D.O.A. Живым или мёртвым.mkv": 5099884867}
创建时间: 2019-12-11 11:43:45 大小:4.75 GB 文件数量:1 热度:8 最近下载:2025-01-14 12:40:03
    {"D.O.A. Живым или мёртвым.mkv": 17998930141}
创建时间: 2019-12-11 22:34:50 大小:16.76 GB 文件数量:1 热度:5 最近下载:2024-12-18 07:11:02
    ... D.D. Teoli Jr. A.C. (10).jpg": 1362473, "Rubber Torment Mutrix Candor D.D ... . Teoli Jr. A.C. (11).jpg": 1498999, "Rubber Torment Mutrix Candor D.D ... . Teoli Jr. A.C. (12).jpg": 1393208, "Rubber Torment Mutrix Candor D.D ...
创建时间: 2019-12-12 08:51:52 大小:106.19 MB 文件数量:147 热度:6 最近下载:2025-03-08 01:56:06
    {"01.jpg": 564618, "02.jpg": 583281, "03.jpg": 490392, "04.jpg": 485247, "05.jpg": 470150, "06.jpg": 416010, "07.jpg": 526640, "08.jpg": 435069, "09.jpg": 488038, "10.jpg": 523136, "11.jpg": 556453, "12.jpg": 517962, "13.jpg": 455402, "14.jpg": 487172, "15 ...
创建时间: 2019-12-12 18:40:11 大小:9.69 MB 文件数量:20 热度:9 最近下载:2025-04-06 02:07:01
    {"HOW TO OPEN FILE.html": 1770, "LICK - A - D - SPLIT ~ The Kinkiest Sex Book On The Planet.pdf": 9658271}
创建时间: 2019-12-19 00:38:06 大小:9.21 MB 文件数量:2 热度:4 最近下载:2025-01-25 00:02:01